Time;durP1;ratioP1;P1;durP2;ratioP2;P2;SDS_P1;SDS_P2;PMS_P1;PMS_P2;Temp;Humidity;BMP_temperature;BMP_pressure;BME280_temperature;BME280_humidity;BME280_pressure;Samples;Min_cycle;Max_cycle;Signal;HPM_P1;HPM_P2
2023/07/09 00:02:23;;;;;;;10.95;4.35;;;;;;;18.71;100.00;100785.97;5548170;32;33975;-61
2023/07/09 00:05:26;;;;;;;9.05;4.50;;;;;;;18.85;100.00;100787.59;5548157;32;33723;-61
2023/07/09 00:08:31;;;;;;;6.65;4.37;;;;;;;18.89;100.00;100788.81;5534461;32;34529;-62
2023/07/09 00:11:34;;;;;;;8.15;4.28;;;;;;;18.79;100.00;100782.22;5534484;32;34394;-61
2023/07/09 00:14:37;;;;;;;6.28;4.00;;;;;;;18.79;100.00;100782.22;5547678;32;33858;-61
2023/07/09 00:17:40;;;;;;;7.72;4.22;;;;;;;18.66;100.00;100785.78;5548221;32;34323;-61
2023/07/09 00:20:43;;;;;;;8.98;4.30;;;;;;;18.55;100.00;100794.47;5548044;32;32651;-60
2023/07/09 00:23:48;;;;;;;8.75;4.10;;;;;;;18.49;100.00;100793.41;5534484;32;34427;-61
2023/07/09 00:26:51;;;;;;;7.03;4.10;;;;;;;18.51;100.00;100790.53;5547890;32;34340;-60
2023/07/09 00:29:55;;;;;;;6.32;4.28;;;;;;;18.73;100.00;100777.72;5534745;32;34030;-60
2023/07/09 00:33:00;;;;;;;9.38;3.80;;;;;;;18.77;100.00;100784.31;5547826;32;34840;-61
2023/07/09 00:36:23;;;;;;;6.85;3.90;;;;;;;18.66;100.00;100783.09;5548249;32;35076;-61
2023/07/09 00:39:26;;;;;;;9.85;4.37;;;;;;;18.55;100.00;100787.25;5547929;32;35083;-60
2023/07/09 00:42:29;;;;;;;10.50;4.62;;;;;;;18.42;100.00;100787.25;5547935;32;35366;-61
2023/07/09 00:45:32;;;;;;;8.38;4.25;;;;;;;18.36;100.00;100788.06;5547943;32;33911;-61
2023/07/09 00:48:35;;;;;;;11.15;4.40;;;;;;;18.26;100.00;100782.28;5548227;32;34317;-60
2023/07/09 00:51:41;;;;;;;8.82;4.20;;;;;;;18.15;100.00;100780.25;5547972;32;33636;-60
2023/07/09 00:54:46;;;;;;;4.62;3.92;;;;;;;18.08;100.00;100784.78;5548155;32;33603;-61
2023/07/09 00:57:56;;;;;;;7.30;4.30;;;;;;;18.03;100.00;100774.66;5547863;32;33820;-61
2023/07/09 01:01:02;;;;;;;;;;;;;;;17.98;100.00;100782.50;5534567;32;33789;-61
2023/07/09 01:04:05;;;;;;;6.97;4.07;;;;;;;17.91;100.00;100780.88;5534094;32;34360;-60
2023/07/09 01:07:09;;;;;;;5.57;4.00;;;;;;;17.95;100.00;100784.78;5547730;32;33849;-61
2023/07/09 01:10:14;;;;;;;8.82;4.78;;;;;;;17.89;100.00;100775.69;5547533;32;35353;-60
2023/07/09 01:13:19;;;;;;;7.87;4.12;;;;;;;17.86;100.00;100784.19;5548070;32;34465;-60
2023/07/09 01:16:26;;;;;;;5.87;4.18;;;;;;;17.78;100.00;100773.63;5547687;32;34300;-61
2023/07/09 01:19:43;;;;;;;5.45;4.05;;;;;;;17.73;100.00;100779.59;5547713;32;32495;-61
2023/07/09 01:22:50;;;;;;;8.02;4.80;;;;;;;17.70;100.00;100777.34;5533326;32;33861;-61
2023/07/09 01:25:54;;;;;;;9.60;4.40;;;;;;;17.63;100.00;100781.84;5534258;32;34299;-61
2023/07/09 01:28:57;;;;;;;8.70;4.68;;;;;;;17.62;100.00;100793.63;5533821;32;34947;-61
2023/07/09 01:32:00;;;;;;;6.35;4.70;;;;;;;17.54;100.00;100787.59;5547601;32;33960;-61
2023/07/09 01:35:06;;;;;;;6.55;4.35;;;;;;;17.54;100.00;100791.09;5547405;32;34025;-61
2023/07/09 01:38:09;;;;;;;9.00;4.30;;;;;;;17.56;100.00;100791.72;5533749;32;33943;-61
2023/07/09 01:41:13;;;;;;;8.15;4.50;;;;;;;17.55;100.00;100795.44;5547270;32;34001;-61
2023/07/09 01:44:17;;;;;;;8.43;4.57;;;;;;;17.48;100.00;100794.59;5547124;32;33811;-61
2023/07/09 01:47:22;;;;;;;7.45;4.43;;;;;;;17.46;100.00;100798.50;5547176;32;33834;-61
2023/07/09 01:50:26;;;;;;;7.30;4.37;;;;;;;17.38;100.00;100800.34;5533570;32;33592;-61
2023/07/09 01:53:33;;;;;;;7.07;4.30;;;;;;;17.32;100.00;100805.69;5547155;32;33878;-61
2023/07/09 01:56:38;;;;;;;7.53;4.50;;;;;;;17.31;100.00;100814.75;5547128;32;33680;-61
2023/07/09 01:59:44;;;;;;;8.82;4.60;;;;;;;17.31;100.00;100812.91;5547242;32;33578;-61
2023/07/09 02:02:47;;;;;;;9.27;4.72;;;;;;;17.32;100.00;100811.06;5547022;32;33766;-61
2023/07/09 02:05:54;;;;;;;7.62;4.30;;;;;;;17.33;100.00;100810.03;5546867;32;35348;-61
2023/07/09 02:08:58;;;;;;;8.90;4.43;;;;;;;17.28;100.00;100805.25;5546897;32;33849;-60
2023/07/09 02:12:02;;;;;;;6.72;4.28;;;;;;;17.26;100.00;100810.00;5546832;32;34531;-61
2023/07/09 02:15:06;;;;;;;6.85;4.57;;;;;;;17.22;100.00;100807.94;5533231;32;34423;-61
2023/07/09 02:18:10;;;;;;;8.60;4.97;;;;;;;17.35;100.00;100807.97;5546680;32;35278;-61
2023/07/09 02:21:13;;;;;;;8.95;4.30;;;;;;;17.37;100.00;100812.12;5520664;32;33630;-61
2023/07/09 02:24:16;;;;;;;9.10;4.97;;;;;;;17.27;100.00;100806.31;5546702;32;33775;-60
2023/07/09 02:27:20;;;;;;;6.75;4.72;;;;;;;17.13;100.00;100818.00;5546642;32;33854;-60
2023/07/09 02:30:23;;;;;;;7.25;4.30;;;;;;;17.09;100.00;100810.56;5546608;32;34623;-61
2023/07/09 02:33:26;;;;;;;8.68;5.18;;;;;;;17.03;100.00;100822.06;5546767;32;34409;-61
2023/07/09 02:36:29;;;;;;;7.57;4.90;;;;;;;16.94;100.00;100824.09;5548262;32;34045;-61
2023/07/09 02:39:32;;;;;;;8.20;5.00;;;;;;;16.88;100.00;100815.00;5549247;32;34292;-61
2023/07/09 02:42:36;;;;;;;6.90;4.60;;;;;;;16.84;100.00;100816.41;5535463;32;34466;-61
2023/07/09 02:45:39;;;;;;;8.77;4.60;;;;;;;16.83;100.00;100809.41;5549021;32;33563;-61
2023/07/09 02:48:43;;;;;;;9.38;4.65;;;;;;;16.81;100.00;100816.78;5549077;32;35149;-61
2023/07/09 02:51:45;;;;;;;6.85;4.60;;;;;;;16.81;100.00;100811.44;5548951;32;33910;-61
2023/07/09 02:54:49;;;;;;;9.13;4.43;;;;;;;16.81;100.00;100811.44;5535322;32;33583;-61
2023/07/09 02:57:52;;;;;;;8.10;4.72;;;;;;;16.79;100.00;100810.00;5535367;32;33890;-61
2023/07/09 03:00:55;;;;;;;6.60;4.40;;;;;;;16.74;100.00;100823.16;5548916;32;33031;-61
2023/07/09 03:03:59;;;;;;;7.35;4.40;;;;;;;16.73;100.00;100816.97;5548938;32;33572;-61
2023/07/09 03:07:03;;;;;;;6.90;4.30;;;;;;;16.73;100.00;100821.50;5535135;32;33934;-61
2023/07/09 03:10:09;;;;;;;9.52;4.30;;;;;;;16.73;100.00;100825.00;5548882;32;33622;-61
2023/07/09 03:13:13;;;;;;;8.57;4.43;;;;;;;16.70;100.00;100822.69;5535287;32;34565;-61
2023/07/09 03:16:16;;;;;;;7.32;4.20;;;;;;;16.72;100.00;100836.75;5548798;32;34651;-61
2023/07/09 03:19:19;;;;;;;6.15;4.40;;;;;;;16.75;100.00;100832.84;5549080;32;33927;-61
2023/07/09 03:22:22;;;;;;;6.05;4.18;;;;;;;16.85;100.00;100833.28;5548684;32;34451;-61
2023/07/09 03:25:25;;;;;;;7.57;4.03;;;;;;;16.93;100.00;100836.66;5534933;32;33357;-61
2023/07/09 03:28:31;;;;;;;8.85;3.95;;;;;;;17.16;100.00;100831.00;5535331;32;33733;-61
2023/07/09 03:31:34;;;;;;;6.65;4.15;;;;;;;17.31;100.00;100833.53;5548699;32;33517;-61
2023/07/09 03:34:38;;;;;;;7.93;3.78;;;;;;;17.30;100.00;100834.56;5548693;32;33974;-61
2023/07/09 03:37:41;;;;;;;4.65;3.40;;;;;;;17.37;100.00;100838.94;5548403;32;33496;-60
2023/07/09 03:40:44;;;;;;;6.50;3.95;;;;;;;17.37;100.00;100840.78;5534915;32;34590;-60
2023/07/09 03:43:50;;;;;;;6.45;4.03;;;;;;;17.45;100.00;100839.78;5534694;32;33795;-60
2023/07/09 03:46:52;;;;;;;5.35;3.90;;;;;;;17.70;100.00;100841.75;5548276;32;33897;-60
2023/07/09 03:49:55;;;;;;;5.25;4.00;;;;;;;17.65;100.00;100836.16;5535081;32;33620;-60
2023/07/09 03:52:58;;;;;;;5.90;3.97;;;;;;;17.59;100.00;100841.50;5548416;32;33506;-60
2023/07/09 03:56:01;;;;;;;5.30;4.00;;;;;;;17.48;100.00;100839.34;5548490;32;34363;-60
2023/07/09 03:59:04;;;;;;;6.40;4.12;;;;;;;17.55;100.00;100840.22;5548367;32;34650;-60
2023/07/09 04:02:07;;;;;;;5.72;3.75;;;;;;;17.59;100.00;100844.19;5534837;32;32330;-60
2023/07/09 04:05:11;;;;;;;7.10;4.20;;;;;;;17.61;100.00;100836.75;5534851;32;34715;-61
2023/07/09 04:08:14;;;;;;;4.82;3.90;;;;;;;17.53;100.00;100835.03;5534566;32;33739;-60
2023/07/09 04:11:17;;;;;;;7.65;4.07;;;;;;;17.66;100.00;100845.03;5548237;32;33162;-60
2023/07/09 04:14:20;;;;;;;7.68;3.83;;;;;;;17.81;100.00;100849.19;5548277;32;34032;-60
2023/07/09 04:17:24;;;;;;;8.25;4.18;;;;;;;18.01;100.00;100843.84;5534575;32;33785;-61
2023/07/09 04:20:27;;;;;;;4.65;3.50;;;;;;;18.15;100.00;100847.41;5548167;32;33893;-60
2023/07/09 04:23:30;;;;;;;9.73;4.22;;;;;;;18.29;100.00;100846.34;5548207;32;33361;-60
2023/07/09 04:26:33;;;;;;;6.78;3.87;;;;;;;18.30;100.00;100850.69;5534527;32;33234;-60
2023/07/09 04:29:38;;;;;;;7.75;4.20;;;;;;;18.38;100.00;100839.75;5548419;32;34545;-61
2023/07/09 04:32:43;;;;;;;6.68;4.12;;;;;;;18.48;100.00;100850.06;5548006;32;34476;-60
2023/07/09 04:35:48;;;;;;;5.68;3.90;;;;;;;18.72;100.00;100854.81;5548126;32;34657;-61
2023/07/09 04:38:51;;;;;;;5.78;4.12;;;;;;;18.65;100.00;100849.44;5534369;32;33175;-61
2023/07/09 04:41:54;;;;;;;6.22;4.07;;;;;;;18.61;100.00;100842.03;5546346;32;34391;-61
2023/07/09 04:44:56;;;;;;;7.28;4.00;;;;;;;18.65;100.00;100849.44;5533956;32;34731;-61
2023/07/09 04:47:59;;;;;;;9.38;4.20;;;;;;;18.79;100.00;100844.03;5547919;32;32447;-61
2023/07/09 04:51:02;;;;;;;9.63;4.32;;;;;;;18.98;100.00;100851.22;5547888;32;33766;-61
2023/07/09 04:54:06;;;;;;;8.60;4.32;;;;;;;19.07;100.00;100847.31;5548024;32;33588;-61
2023/07/09 04:57:08;;;;;;;10.82;4.37;;;;;;;19.21;100.00;100851.59;5547164;32;33612;-60
2023/07/09 05:00:12;;;;;;;7.95;4.40;;;;;;;19.34;100.00;100848.84;5534188;32;33818;-61
2023/07/09 05:03:16;;;;;;;8.77;4.70;;;;;;;19.43;100.00;100847.56;5548211;32;33777;-61
2023/07/09 05:06:19;;;;;;;6.20;4.28;;;;;;;19.52;100.00;100858.94;5548056;32;32880;-61
2023/07/09 05:09:25;;;;;;;9.85;4.57;;;;;;;19.67;100.00;100850.56;5547757;32;34021;-61
2023/07/09 05:12:28;;;;;;;8.15;4.40;;;;;;;19.77;100.00;100864.41;5547762;32;33277;-61
2023/07/09 05:15:31;;;;;;;6.62;4.28;;;;;;;19.91;100.00;100853.31;5534062;32;33815;-61
2023/07/09 05:18:34;;;;;;;8.13;4.60;;;;;;;20.03;100.00;100858.03;5547880;32;33623;-61
2023/07/09 05:21:36;;;;;;;6.68;4.30;;;;;;;20.18;100.00;100856.66;5547414;32;34200;-61
2023/07/09 05:24:40;;;;;;;13.27;4.18;;;;;;;20.31;100.00;100861.97;5547712;32;33274;-61
2023/07/09 05:27:43;;;;;;;5.82;4.00;;;;;;;20.48;100.00;100851.47;5533977;32;33689;-61
2023/07/09 05:30:46;;;;;;;6.47;4.22;;;;;;;20.57;100.00;100855.53;5547776;32;34296;-61
2023/07/09 05:33:49;;;;;;;9.45;4.70;;;;;;;20.71;100.00;100848.16;5547338;32;33293;-61
2023/07/09 05:36:52;;;;;;;7.40;4.18;;;;;;;20.73;100.00;100854.13;5533797;32;34285;-61
2023/07/09 05:39:55;;;;;;;8.57;3.97;;;;;;;20.86;100.00;100859.41;5547505;32;33993;-61
2023/07/09 05:42:58;;;;;;;13.38;4.30;;;;;;;21.04;100.00;100855.88;5547339;32;33872;-61
2023/07/09 05:46:02;;;;;;;7.45;4.00;;;;;;;21.25;100.00;100858.97;5547106;32;34509;-61
2023/07/09 05:49:07;;;;;;;5.43;3.80;;;;;;;21.29;100.00;100861.25;5547462;32;34292;-62
2023/07/09 05:52:10;;;;;;;8.02;4.18;;;;;;;21.46;98.02;100864.94;5547146;32;33899;-61
2023/07/09 05:55:13;;;;;;;13.32;4.37;;;;;;;21.55;96.44;100859.00;5547022;32;34765;-61
2023/07/09 05:58:15;;;;;;;6.62;3.72;;;;;;;21.65;93.00;100866.56;5546915;32;33934;-61
2023/07/09 06:01:20;;;;;;;6.22;3.85;;;;;;;21.79;91.77;100859.94;5547099;32;35004;-61
2023/07/09 06:04:24;;;;;;;12.85;3.80;;;;;;;21.93;90.81;100864.13;5533471;32;33887;-61
2023/07/09 06:07:27;;;;;;;6.10;3.80;;;;;;;22.09;89.79;100873.44;5546828;32;34558;-61
2023/07/09 06:10:30;;;;;;;6.78;4.15;;;;;;;22.24;87.30;100859.50;5548318;32;32661;-61
2023/07/09 06:13:33;;;;;;;7.55;4.00;;;;;;;22.40;84.90;100856.12;5549205;32;33590;-62
2023/07/09 06:16:37;;;;;;;6.97;4.20;;;;;;;22.55;78.84;100859.19;5549081;32;33882;-61
2023/07/09 06:19:40;;;;;;;9.65;3.90;;;;;;;22.76;79.53;100853.22;5549256;32;33739;-60
2023/07/09 06:22:43;;;;;;;4.87;3.62;;;;;;;22.93;77.13;100861.44;5549139;32;34896;-61
2023/07/09 06:25:47;;;;;;;5.43;3.60;;;;;;;23.10;76.24;100847.97;5548999;32;33786;-61
2023/07/09 06:28:50;;;;;;;7.47;3.90;;;;;;;23.33;74.53;100850.66;5548976;32;33680;-61
2023/07/09 06:31:53;;;;;;;10.30;3.85;;;;;;;23.52;72.14;100862.16;5548768;32;33931;-62
2023/07/09 06:34:56;;;;;;;7.35;3.80;;;;;;;23.62;70.03;100865.91;5545726;32;34967;-62
2023/07/09 06:37:59;;;;;;;6.00;3.60;;;;;;;23.81;66.98;100866.50;5529558;32;34478;-61
2023/07/09 06:41:02;;;;;;;7.68;3.50;;;;;;;24.01;67.53;100857.94;5515798;32;33983;-61
2023/07/09 06:44:06;;;;;;;8.88;4.15;;;;;;;24.17;65.88;100851.72;5529368;32;33514;-61
2023/07/09 06:47:09;;;;;;;5.95;3.60;;;;;;;24.33;64.44;100856.34;5529619;32;34479;-61
2023/07/09 06:50:12;;;;;;;8.77;3.60;;;;;;;24.44;62.80;100854.59;5529410;32;34819;-62
2023/07/09 06:53:15;;;;;;;5.93;3.37;;;;;;;24.64;63.10;100857.63;5529510;32;33873;-61
2023/07/09 06:56:18;;;;;;;7.93;3.92;;;;;;;24.94;59.28;100851.81;5515396;32;33840;-61
2023/07/09 06:59:21;;;;;;;6.05;3.12;;;;;;;25.18;58.93;100853.22;5517654;32;33638;-62
2023/07/09 07:02:24;;;;;;;8.80;3.80;;;;;;;25.36;60.15;100858.38;5519437;32;33724;-62
2023/07/09 07:05:28;;;;;;;6.20;3.30;;;;;;;25.55;57.07;100855.34;5515630;32;33777;-61
2023/07/09 07:08:31;;;;;;;4.55;3.22;;;;;;;25.83;57.61;100855.91;5529042;32;33707;-62
2023/07/09 07:11:34;;;;;;;6.32;3.50;;;;;;;26.21;55.64;100859.53;5528659;32;33913;-61
2023/07/09 07:14:37;;;;;;;6.45;3.58;;;;;;;26.51;53.00;100856.25;5529082;32;34392;-62
2023/07/09 07:17:40;;;;;;;7.82;3.33;;;;;;;26.81;51.80;100865.44;5529150;32;35050;-62
2023/07/09 07:20:43;;;;;;;11.02;3.78;;;;;;;27.21;51.68;100855.84;5514677;32;33877;-61
2023/07/09 07:23:47;;;;;;;7.87;3.20;;;;;;;27.44;49.32;100857.31;5528845;32;32849;-64
2023/07/09 07:26:51;;;;;;;9.07;3.30;;;;;;;27.24;50.01;100860.78;5529426;32;33740;-63
2023/07/09 07:29:54;;;;;;;5.07;2.87;;;;;;;27.52;50.06;100857.66;5515329;32;34529;-63
2023/07/09 07:32:58;;;;;;;5.65;3.00;;;;;;;27.57;49.30;100863.13;5528632;32;34255;-62
2023/07/09 07:36:05;;;;;;;6.78;3.17;;;;;;;27.87;48.95;100856.09;5529228;32;33892;-62
2023/07/09 07:39:30;;;;;;;3.80;2.83;;;;;;;28.44;47.39;100855.88;5517454;32;33862;-63
2023/07/09 07:42:33;;;;;;;4.80;2.78;;;;;;;29.26;45.58;100865.50;5528671;32;34483;-62
2023/07/09 07:45:40;;;;;;;5.57;2.75;;;;;;;29.54;43.64;100866.78;5515225;32;34789;-62
2023/07/09 07:48:44;;;;;;;7.07;2.90;;;;;;;29.59;42.26;100864.00;5515214;32;34518;-62
2023/07/09 07:51:48;;;;;;;9.27;2.62;;;;;;;29.75;41.42;100858.19;5520258;32;33752;-62
2023/07/09 07:54:52;;;;;;;6.93;2.97;;;;;;;30.56;39.49;100857.56;5548854;32;34346;-62
2023/07/09 07:57:56;;;;;;;3.62;2.53;;;;;;;30.07;40.14;100854.97;5537384;32;34542;-63
2023/07/09 08:01:00;;;;;;;3.35;2.60;;;;;;;30.95;38.40;100859.34;5520047;32;33638;-62
2023/07/09 08:04:03;;;;;;;4.00;2.47;;;;;;;30.81;39.09;100858.41;5539796;32;35089;-63
2023/07/09 08:07:10;;;;;;;6.93;2.55;;;;;;;30.79;38.61;100858.69;5548001;32;33782;-63
2023/07/09 08:10:15;;;;;;;4.65;2.50;;;;;;;32.12;36.48;100851.22;5534072;32;33871;-62
2023/07/09 08:13:18;;;;;;;5.05;2.30;;;;;;;32.62;35.63;100859.72;5547738;32;33830;-62
2023/07/09 08:16:22;;;;;;;5.57;2.50;;;;;;;32.82;33.89;100853.87;5534020;32;33679;-64
2023/07/09 08:19:27;;;;;;;6.35;2.62;;;;;;;33.07;32.00;100856.09;5547119;32;34568;-62
2023/07/09 08:22:30;;;;;;;3.62;2.47;;;;;;;33.63;32.43;100857.66;5521107;32;34704;-63
2023/07/09 08:25:33;;;;;;;6.05;2.35;;;;;;;31.99;32.19;100851.97;5547451;32;34254;-62
2023/07/09 08:28:37;;;;;;;3.22;2.28;;;;;;;31.93;32.50;100861.41;5547751;32;33681;-63
2023/07/09 08:31:41;;;;;;;3.87;2.30;;;;;;;33.11;30.78;100859.06;5533363;32;33851;-63
2023/07/09 08:34:45;;;;;;;5.50;2.28;;;;;;;32.98;31.12;100857.91;5533560;32;33800;-64
2023/07/09 08:38:08;;;;;;;13.32;2.22;;;;;;;32.80;30.84;100858.84;5547288;32;34799;-63
2023/07/09 08:41:36;;;;;;;4.87;2.47;;;;;;;34.36;28.47;100859.25;5547372;32;33530;-65
2023/07/09 08:45:00;;;;;;;5.30;2.28;;;;;;;33.63;29.63;100858.50;5545009;32;33978;-64
2023/07/09 08:48:12;;;;;;;3.40;2.08;;;;;;;32.96;29.54;100857.44;5545360;32;33938;-63
2023/07/09 08:51:33;;;;;;;4.22;2.10;;;;;;;33.86;29.17;100853.84;5547609;32;33481;-63
2023/07/09 08:54:37;;;;;;;6.37;2.37;;;;;;;34.15;28.71;100847.91;5546322;32;33697;-63
2023/07/09 08:57:45;;;;;;;3.58;2.15;;;;;;;34.42;27.68;100855.25;5547155;32;34627;-63
2023/07/09 09:00:54;;;;;;;2.50;2.03;;;;;;;35.02;27.92;100855.53;5533856;32;32338;-64
2023/07/09 09:04:18;;;;;;;4.62;2.28;;;;;;;34.03;28.38;100858.69;5547606;32;34579;-63
2023/07/09 09:07:33;;;;;;;3.83;2.10;;;;;;;34.10;28.24;100856.28;5547300;32;33792;-64
2023/07/09 09:11:03;;;;;;;8.90;2.47;;;;;;;35.73;25.92;100851.50;5547559;32;33798;-64
2023/07/09 09:14:35;;;;;;;3.87;2.22;;;;;;;34.84;27.26;100854.69;5547182;32;34755;-63
2023/07/09 09:17:39;;;;;;;4.05;2.10;;;;;;;35.60;26.36;100843.34;5532156;32;34979;-63
2023/07/09 09:20:45;;;;;;;4.28;2.20;;;;;;;33.67;28.25;100846.84;5547184;32;34682;-64
2023/07/09 09:23:53;;;;;;;5.97;2.30;;;;;;;35.36;26.26;100852.09;5547331;32;33969;-63
2023/07/09 09:26:58;;;;;;;3.53;2.12;;;;;;;35.69;26.46;100849.72;5555854;32;33571;-64
2023/07/09 09:30:01;;;;;;;5.15;2.25;;;;;;;35.41;26.10;100856.63;5566765;32;33873;-63
2023/07/09 09:33:11;;;;;;;3.12;2.05;;;;;;;35.92;24.51;100856.72;5566399;32;34634;-64
2023/07/09 09:36:24;;;;;;;4.93;1.90;;;;;;;35.07;25.04;100855.41;5549316;32;33625;-65
2023/07/09 09:39:28;;;;;;;2.78;2.08;;;;;;;36.74;22.51;100847.31;5546168;32;33885;-64
2023/07/09 09:42:31;;;;;;;3.83;1.98;;;;;;;37.28;22.28;100842.78;5546807;32;33765;-64
2023/07/09 09:45:38;;;;;;;4.07;2.35;;;;;;;39.14;21.32;100854.66;5546468;32;33846;-64
2023/07/09 09:48:45;;;;;;;2.83;1.87;;;;;;;37.32;23.55;100846.53;5546195;32;34385;-64
2023/07/09 09:51:48;;;;;;;3.22;2.30;;;;;;;35.36;25.21;100843.00;5533130;32;33605;-65
2023/07/09 09:54:56;;;;;;;4.43;2.30;;;;;;;34.59;26.15;100846.25;5546761;32;34260;-64
2023/07/09 09:57:59;;;;;;;;;;;;;;;34.83;25.53;100841.19;5547473;32;34556;-63
2023/07/09 10:01:02;;;;;;;3.75;2.40;;;;;;;36.84;23.67;100837.84;5546014;32;34738;-64
2023/07/09 10:04:06;;;;;;;3.53;2.30;;;;;;;35.64;23.74;100830.50;5545026;32;34714;-65
2023/07/09 10:07:21;;;;;;;2.92;2.00;;;;;;;36.16;23.58;100823.06;5533001;32;34806;-63
2023/07/09 10:10:31;;;;;;;3.20;2.05;;;;;;;35.33;24.57;100832.63;5532692;32;34490;-63
2023/07/09 10:13:41;;;;;;;3.22;2.03;;;;;;;36.79;23.44;100838.00;5546701;32;33777;-63
2023/07/09 10:16:48;;;;;;;4.37;1.98;;;;;;;37.55;21.97;100837.94;5533159;32;33832;-63
2023/07/09 10:19:54;;;;;;;3.05;2.00;;;;;;;37.76;22.42;100833.19;5546447;32;34763;-63
2023/07/09 10:23:13;;;;;;;6.25;2.00;;;;;;;38.72;21.18;100829.13;5532670;32;34803;-64
2023/07/09 10:26:36;;;;;;;3.20;2.30;;;;;;;36.59;23.33;100829.28;5546461;32;33853;-64
2023/07/09 10:30:23;;;;;;;2.67;2.08;;;;;;;37.04;22.49;100827.97;5539903;32;34353;-64
2023/07/09 10:33:36;;;;;;;3.10;2.08;;;;;;;36.93;22.51;100830.31;5537190;32;34988;-62
2023/07/09 10:36:45;;;;;;;5.10;2.05;;;;;;;38.84;19.81;100837.41;5544407;32;34938;-63
2023/07/09 10:39:52;;;;;;;3.03;1.80;;;;;;;40.51;19.04;100837.69;5545779;32;33458;-64
2023/07/09 10:43:00;;;;;;;3.60;2.10;;;;;;;39.83;19.35;100835.00;5530154;32;34834;-64
2023/07/09 10:46:14;;;;;;;5.47;2.03;;;;;;;39.67;19.14;100825.78;5526242;32;34769;-63
2023/07/09 10:49:18;;;;;;;3.87;2.08;;;;;;;40.54;19.13;100825.81;5523744;32;33361;-63
2023/07/09 10:52:43;;;;;;;2.75;1.92;;;;;;;40.84;18.91;100828.97;5524140;32;33988;-63
2023/07/09 10:55:56;;;;;;;4.07;2.08;;;;;;;40.74;18.46;100827.56;5526228;32;34473;-63
2023/07/09 10:59:26;;;;;;;5.47;2.00;;;;;;;40.10;19.04;100815.88;5527421;32;34893;-64
2023/07/09 11:02:35;;;;;;;5.68;2.00;;;;;;;37.12;20.47;100811.34;5528476;32;34529;-63
2023/07/09 11:05:39;;;;;;;2.30;1.90;;;;;;;37.97;20.43;100806.25;5526685;32;34314;-64
2023/07/09 11:08:44;;;;;;;2.80;1.95;;;;;;;37.18;20.82;100806.44;5528885;32;32956;-64
2023/07/09 11:11:51;;;;;;;4.25;1.90;;;;;;;39.13;19.01;100805.88;5528739;32;33624;-64
2023/07/09 11:15:08;;;;;;;3.47;1.92;;;;;;;37.48;19.58;100813.50;5527939;32;33462;-63
2023/07/09 11:18:24;;;;;;;4.55;2.10;;;;;;;37.48;19.54;100807.16;5527670;32;33799;-64
2023/07/09 11:21:27;;;;;;;5.47;2.00;;;;;;;36.03;21.28;100794.44;5527341;32;33783;-63
2023/07/09 11:24:34;;;;;;;2.45;1.85;;;;;;;39.19;19.35;100803.66;5528804;32;34218;-64
2023/07/09 11:27:52;;;;;;;2.70;1.98;;;;;;;38.60;20.37;100798.59;5529103;32;32705;-63
2023/07/09 11:30:55;;;;;;;5.90;1.90;;;;;;;39.02;19.69;100802.75;5514523;32;34672;-63
2023/07/09 11:34:10;;;;;;;2.37;1.98;;;;;;;40.78;18.59;100799.81;5529260;32;32481;-63
2023/07/09 11:37:14;;;;;;;2.78;2.15;;;;;;;40.99;17.90;100791.16;5528360;32;33982;-63
2023/07/09 11:40:20;;;;;;;4.35;2.25;;;;;;;40.63;18.78;100793.09;5529468;32;33476;-63
2023/07/09 11:43:35;;;;;;;3.10;2.10;;;;;;;43.19;16.32;100794.16;5531618;32;33947;-63
2023/07/09 11:46:57;;;;;;;3.70;2.15;;;;;;;44.04;15.76;100794.44;5534893;32;33760;-64
2023/07/09 11:50:25;;;;;;;3.03;1.92;;;;;;;44.48;14.89;100794.47;5534692;32;33534;-64
2023/07/09 11:53:36;;;;;;;5.93;2.40;;;;;;;44.66;15.06;100791.84;5538071;32;34311;-63
2023/07/09 11:56:39;;;;;;;3.62;2.00;;;;;;;44.71;15.25;100778.28;5548453;32;34041;-63
2023/07/09 11:59:43;;;;;;;3.00;2.08;;;;;;;42.01;16.81;100770.28;5547919;32;33710;-63
2023/07/09 12:02:46;;;;;;;4.22;2.30;;;;;;;40.96;17.59;100778.75;5534004;32;33681;-64
2023/07/09 12:05:52;;;;;;;3.33;2.37;;;;;;;42.71;16.46;100776.28;5547245;32;33651;-64
2023/07/09 12:08:56;;;;;;;4.30;2.08;;;;;;;41.51;17.49;100771.25;5532757;32;33894;-63
2023/07/09 12:11:59;;;;;;;5.43;2.22;;;;;;;40.31;18.58;100772.00;5520526;32;33621;-64
2023/07/09 12:15:15;;;;;;;5.45;2.37;;;;;;;40.94;17.93;100758.03;5533021;32;33381;-63
2023/07/09 12:18:18;;;;;;;3.65;2.12;;;;;;;41.58;17.96;100760.28;5547024;32;33944;-64
2023/07/09 12:21:25;;;;;;;4.30;2.10;;;;;;;41.79;17.45;100757.06;5547423;32;34531;-63
2023/07/09 12:24:35;;;;;;;3.62;2.10;;;;;;;41.37;17.72;100755.03;5547623;32;34388;-63
2023/07/09 12:27:41;;;;;;;2.90;2.40;;;;;;;39.62;18.71;100747.44;5532177;32;34522;-63
2023/07/09 12:30:50;;;;;;;4.35;2.20;;;;;;;40.00;18.45;100744.94;5547536;32;34106;-63
2023/07/09 12:33:55;;;;;;;3.37;2.33;;;;;;;41.86;16.98;100740.53;5545295;32;33907;-63
2023/07/09 12:36:59;;;;;;;3.37;2.20;;;;;;;41.69;18.26;100749.31;5547531;32;33571;-63
2023/07/09 12:40:11;;;;;;;6.07;2.40;;;;;;;40.43;18.31;100730.19;5546304;32;33946;-63
2023/07/09 12:43:19;;;;;;;3.33;2.40;;;;;;;40.52;17.96;100736.41;5545617;32;34501;-64
2023/07/09 12:46:23;;;;;;;2.47;2.25;;;;;;;40.80;17.84;100722.38;5547952;32;34606;-64
2023/07/09 12:49:29;;;;;;;6.35;2.40;;;;;;;42.13;17.06;100722.69;5534429;32;33933;-65
2023/07/09 12:52:32;;;;;;;5.90;2.33;;;;;;;40.07;18.08;100724.87;5547731;32;34363;-62
2023/07/09 12:55:41;;;;;;;7.75;2.70;;;;;;;41.14;17.99;100729.91;5547617;32;33774;-63
2023/07/09 12:58:44;;;;;;;5.70;2.37;;;;;;;40.58;18.00;100726.59;5534186;32;34639;-63
2023/07/09 13:01:50;;;;;;;3.62;2.33;;;;;;;43.56;16.30;100727.22;5534016;32;33892;-63
2023/07/09 13:05:04;;;;;;;5.97;2.22;;;;;;;42.47;16.70;100723.69;5528662;32;34500;-63
2023/07/09 13:08:13;;;;;;;2.40;2.20;;;;;;;43.13;16.38;100716.72;5533677;32;34290;-63
2023/07/09 13:11:18;;;;;;;3.08;2.00;;;;;;;41.64;17.18;100709.44;5547032;32;33867;-62
2023/07/09 13:14:25;;;;;;;3.67;2.10;;;;;;;42.52;17.12;100714.97;5534098;32;33578;-64
2023/07/09 13:17:30;;;;;;;6.00;2.10;;;;;;;38.95;19.23;100707.41;5547336;32;34504;-62
2023/07/09 13:20:39;;;;;;;7.50;2.57;;;;;;;42.21;16.89;100704.13;5546225;32;33889;-64
2023/07/09 13:23:42;;;;;;;5.62;2.10;;;;;;;42.45;16.87;100704.53;5530973;32;33859;-63
2023/07/09 13:26:46;;;;;;;3.97;2.15;;;;;;;45.38;14.78;100705.00;5514707;32;34464;-64
2023/07/09 13:29:49;;;;;;;4.10;2.05;;;;;;;46.26;13.97;100713.62;5527858;32;33841;-64
2023/07/09 13:32:53;;;;;;;3.87;2.20;;;;;;;42.97;16.47;100702.91;5531068;32;33928;-64
2023/07/09 13:35:56;;;;;;;3.87;2.25;;;;;;;43.52;16.34;100694.84;5543050;32;33232;-63
2023/07/09 13:39:00;;;;;;;5.75;2.28;;;;;;;44.21;15.44;100695.09;5541445;32;33765;-64
2023/07/09 13:42:08;;;;;;;3.15;2.20;;;;;;;43.24;15.67;100695.28;5535576;32;33250;-63
2023/07/09 13:45:24;;;;;;;5.35;2.40;;;;;;;43.60;15.73;100697.34;5533292;32;33553;-63
2023/07/09 13:48:28;;;;;;;3.78;2.20;;;;;;;42.60;16.62;100697.19;5546853;32;33554;-64
2023/07/09 13:51:32;;;;;;;5.30;2.42;;;;;;;42.80;16.32;100700.66;5547013;32;33735;-64
2023/07/09 13:54:35;;;;;;;3.17;2.15;;;;;;;42.90;16.24;100702.78;5546519;32;33737;-64
2023/07/09 13:57:39;;;;;;;5.35;2.10;;;;;;;43.57;15.73;100695.31;5541357;32;35228;-63
2023/07/09 14:00:43;;;;;;;4.50;2.10;;;;;;;45.03;14.58;100691.69;5527623;32;34528;-64
2023/07/09 14:03:46;;;;;;;6.97;2.30;;;;;;;46.48;13.77;100694.72;5527540;32;34874;-63
2023/07/09 14:06:49;;;;;;;3.87;2.58;;;;;;;47.30;13.03;100689.69;5527356;32;34033;-64
2023/07/09 14:09:52;;;;;;;6.90;2.30;;;;;;;45.84;14.73;100685.53;5533050;32;34560;-63
2023/07/09 14:12:56;;;;;;;3.95;2.08;;;;;;;43.47;15.45;100676.44;5546661;32;33111;-64
2023/07/09 14:16:00;;;;;;;3.85;2.20;;;;;;;44.16;15.60;100685.88;5542559;32;33987;-64
2023/07/09 14:19:03;;;;;;;3.58;2.33;;;;;;;45.11;14.98;100676.53;5513671;32;32354;-64
2023/07/09 14:22:21;;;;;;;6.50;2.40;;;;;;;40.92;17.82;100679.66;5532759;32;33872;-63